^^
Station Historical Data
Daily Summary for March 20, 2017 Units:  English    Metric   Both
« Previous Day
Next Day »
Daily Weekly Monthly Yearly Custom
  High: Low: Average:
Temperature: 51.2 °F 31.0 °F 40.1 °F
Dew Point: 25.2 °F 15.9 °F 19.8 °F
Humidity: 62% 28% 45%
Wind Speed: 6.0mph 0.0mph 1.3mph
Wind Gust: 12.0mph - -
Wind- - WNW
Pressure: 30.18 in 30.00 in -
Precipitation: 0.00 in    
Historical Graphs
 
 
Tabular Data for March 20, 2017
Time Temperature Dew Point Pressure Wind Wind Speed Wind Gust Humidity Rainfall Rate (Hourly) Conditions
00:00 36.2 °F 19.4 °F 30.16 in North 1.0 mph 6.0 mph 50% 0.00 in RA
00:15 36.0 °F 19.1 °F 30.17 in Calm   4.0 mph 50% 0.00 in CLR
00:30 35.9 °F 19.5 °F 30.16 in NNE 1.0 mph 4.0 mph 51% 0.00 in CLR
00:45 35.5 °F 20.1 °F 30.16 in North 1.0 mph 4.0 mph 53% 0.00 in CLR
01:00 35.3 °F 20.7 °F 30.16 in Calm   4.0 mph 55% 0.00 in CLR
02:30 34.4 °F 19.5 °F 30.16 in North 3.0 mph 6.0 mph 54% 0.00 in CLR
02:45 34.0 °F 18.7 °F 30.16 in Calm   6.0 mph 53% 0.00 in CLR
03:00 33.7 °F 17.9 °F 30.15 in NNW 1.0 mph 5.0 mph 52% 0.00 in CLR
03:15 33.3 °F 16.2 °F 30.15 in North 1.0 mph 8.0 mph 49% 0.00 in CLR
03:30 33.2 °F 16.1 °F 30.15 in North 1.0 mph 9.0 mph 49% 0.00 in CLR
03:45 32.7 °F 16.1 °F 30.15 in NNW 2.0 mph 7.0 mph 50% 0.00 in CLR
04:00 32.4 °F 16.7 °F 30.14 in NNW 2.0 mph 7.0 mph 52% 0.00 in CLR
04:15 32.5 °F 16.4 °F 30.14 in NNW 1.0 mph 5.0 mph 51% 0.00 in CLR
04:30 32.9 °F 16.3 °F 30.14 in North 2.0 mph 10.0 mph 50% 0.00 in CLR
04:45 32.6 °F 16.9 °F 30.14 in NNW 1.0 mph 6.0 mph 52% 0.00 in CLR
05:00 32.1 °F 16.9 °F 30.15 in NW 1.0 mph 5.0 mph 53% 0.00 in CLR
05:15 32.0 °F 16.3 °F 30.15 in North 2.0 mph 6.0 mph 52% 0.00 in CLR
05:30 31.8 °F 16.2 °F 30.15 in NW 1.0 mph 7.0 mph 52% 0.00 in CLR
05:45 31.6 °F 15.9 °F 30.15 in NNW 1.0 mph 4.0 mph 52% 0.00 in CLR
06:00 31.3 °F 16.1 °F 30.16 in North 2.0 mph 5.0 mph 53% 0.00 in CLR
06:15 31.4 °F 16.2 °F 30.16 in NNW 1.0 mph 4.0 mph 53% 0.00 in CLR
06:30 31.2 °F 16.0 °F 30.16 in Calm   4.0 mph 53% 0.00 in CLR
06:45 31.1 °F 16.8 °F 30.16 in Calm   5.0 mph 55% 0.00 in CLR
07:00 31.1 °F 17.6 °F 30.17 in Calm   4.0 mph 57% 0.00 in CLR
07:15 31.0 °F 18.3 °F 30.17 in NNW 1.0 mph 6.0 mph 59% 0.00 in CLR
07:30 31.3 °F 19.4 °F 30.17 in North 3.0 mph 9.0 mph 61% 0.00 in CLR
07:45 31.6 °F 19.7 °F 30.18 in North 1.0 mph 6.0 mph 61% 0.00 in CLR
08:00 31.8 °F 20.3 °F 30.18 in North 2.0 mph 6.0 mph 62% 0.00 in CLR
08:15 32.1 °F 19.4 °F 30.18 in NNW 2.0 mph 10.0 mph 59% 0.00 in CLR
08:30 32.5 °F 19.3 °F 30.17 in North 1.0 mph 7.0 mph 58% 0.00 in CLR
08:45 33.1 °F 19.1 °F 30.17 in NNW 2.0 mph 7.0 mph 56% 0.00 in CLR
09:00 33.9 °F 19.5 °F 30.17 in NW 2.0 mph 9.0 mph 55% 0.00 in CLR
09:30 35.6 °F 20.2 °F 30.17 in NW 1.0 mph 10.0 mph 53% 0.00 in CLR
09:45 36.5 °F 20.1 °F 30.17 in North 2.0 mph 6.0 mph 51% 0.00 in CLR
10:00 37.4 °F 20.5 °F 30.17 in NNW 1.0 mph 12.0 mph 50% 0.00 in CLR
10:15 37.9 °F 19.9 °F 30.16 in NNW 2.0 mph 9.0 mph 48% 0.00 in CLR
10:30 38.8 °F 20.3 °F 30.15 in NW 2.0 mph 7.0 mph 47% 0.00 in CLR
10:45 39.4 °F 21.3 °F 30.15 in North 5.0 mph 8.0 mph 48% 0.00 in CLR
11:00 39.2 °F 20.2 °F 30.15 in Calm   12.0 mph 46% 0.00 in CLR
11:15 40.0 °F 20.3 °F 30.14 in NW 2.0 mph 9.0 mph 45% 0.00 in CLR
11:30 40.1 °F 19.9 °F 30.13 in NW 3.0 mph 12.0 mph 44% 0.00 in CLR
11:45 40.9 °F 20.7 °F 30.13 in NNW 2.0 mph 12.0 mph 44% 0.00 in CLR
12:00 41.2 °F 21.4 °F 30.12 in NW 2.0 mph 8.0 mph 45% 0.00 in CLR
12:15 41.4 °F 21.6 °F 30.11 in West 3.0 mph 9.0 mph 45% 0.00 in CLR
12:30 41.9 °F 20.4 °F 30.11 in NW 3.0 mph 8.0 mph 42% 0.00 in CLR
12:45 43.0 °F 20.3 °F 30.11 in NNW 6.0 mph 10.0 mph 40% 0.00 in CLR
13:00 42.8 °F 19.5 °F 30.11 in NNW 2.0 mph 10.0 mph 39% 0.00 in CLR
13:15 44.0 °F 19.4 °F 30.11 in NNW 5.0 mph 9.0 mph 37% 0.00 in CLR
13:30 44.4 °F 20.9 °F 30.10 in NW 2.0 mph 10.0 mph 39% 0.00 in CLR
13:45 44.6 °F 19.3 °F 30.10 in NW 3.0 mph 10.0 mph 36% 0.00 in CLR
14:00 44.8 °F 20.1 °F 30.10 in WNW 5.0 mph 12.0 mph 37% 0.00 in CLR
14:15 45.5 °F 18.7 °F 30.10 in North 2.0 mph 12.0 mph 34% 0.00 in CLR
14:30 46.0 °F 18.4 °F 30.09 in WNW 1.0 mph 12.0 mph 33% 0.00 in CLR
14:45 46.5 °F 18.9 °F 30.08 in NNW 3.0 mph 7.0 mph 33% 0.00 in CLR
15:00 47.0 °F 17.9 °F 30.07 in NW 3.0 mph 12.0 mph 31% 0.00 in CLR
15:15 47.4 °F 18.2 °F 30.07 in NNW 3.0 mph 12.0 mph 31% 0.00 in CLR
15:30 47.5 °F 16.8 °F 30.07 in NNW 2.0 mph 7.0 mph 29% 0.00 in CLR
15:45 48.5 °F 17.6 °F 30.07 in NNW 1.0 mph 7.0 mph 29% 0.00 in CLR
16:00 48.6 °F 16.9 °F 30.05 in North 1.0 mph 7.0 mph 28% 0.00 in CLR
16:15 49.4 °F 17.6 °F 30.05 in Calm   7.0 mph 28% 0.00 in CLR
16:30 49.1 °F 17.4 °F 30.04 in NNW 1.0 mph 6.0 mph 28% 0.00 in CLR
16:45 48.8 °F 17.1 °F 30.03 in WNW 1.0 mph 5.0 mph 28% 0.00 in CLR
17:15 49.3 °F 19.1 °F 30.02 in Calm   5.0 mph 30% 0.00 in FEW
17:30 50.1 °F 20.6 °F 30.01 in NW 1.0 mph 4.0 mph 31% 0.00 in FEW
18:00 51.2 °F 20.0 °F 30.01 in Calm   4.0 mph 29% 0.00 in FEW
18:15 50.2 °F 20.0 °F 30.01 in Calm   2.0 mph 30% 0.00 in FEW
18:30 49.6 °F 20.2 °F 30.00 in Calm   1.0 mph 31% 0.00 in FEW
18:45 49.3 °F 19.9 °F 30.00 in Calm   2.0 mph 31% 0.00 in FEW
19:00 48.1 °F 21.1 °F 30.00 in Calm   1.0 mph 34% 0.00 in FEW
19:15 46.6 °F 21.7 °F 30.00 in Calm   1.0 mph 37% 0.00 in SCT
19:30 46.3 °F 22.0 °F 30.01 in Calm   2.0 mph 38% 0.00 in SCT
19:45 46.1 °F 23.1 °F 30.01 in Calm   1.0 mph 40% 0.00 in SCT
20:00 45.2 °F 24.6 °F 30.01 in Calm     44% 0.00 in SCT
20:15 43.8 °F 23.3 °F 30.01 in Calm     44% 0.00 in SCT
20:30 43.1 °F 23.7 °F 30.01 in Calm     46% 0.00 in SCT
20:45 43.6 °F 22.6 °F 30.01 in Calm   1.0 mph 43% 0.00 in SCT
21:15 42.9 °F 24.0 °F 30.02 in Calm   1.0 mph 47% 0.00 in FEW
21:30 42.3 °F 24.0 °F 30.03 in Calm   1.0 mph 48% 0.00 in FEW
21:45 43.1 °F 23.2 °F 30.03 in Calm     45% 0.00 in FEW
22:00 43.5 °F 23.5 °F 30.03 in Calm     45% 0.00 in FEW
22:15 43.7 °F 23.2 °F 30.02 in Calm   1.0 mph 44% 0.00 in BKN
22:30 43.8 °F 23.8 °F 30.02 in Calm     45% 0.00 in BKN
22:45 43.7 °F 23.7 °F 30.02 in Calm   1.0 mph 45% 0.00 in BKN
23:00 43.4 °F 24.0 °F 30.02 in Calm     46% 0.00 in BKN
23:15 43.5 °F 23.5 °F 30.01 in SW 1.0 mph 2.0 mph 45% 0.00 in BKN
23:30 43.3 °F 24.9 °F 30.01 in Calm   2.0 mph 48% 0.00 in BKN
23:45 42.0 °F 25.2 °F 30.01 in Calm   1.0 mph 51% 0.00 in BKN
TarryTown NY Weather
Compliments of Weather Underground - 1.5 mb